Lyman, Wyoming
Current Conditions -  °F | °C
As of 10:55 PM on Saturday 25 Oct 2014 (Local Time) from KFBR Reporting Station
Clear Clear  
Wind Chill: 55°   Ceiling: Unl
Heat Index: 55°   Visibility: NA
Dew Point: 30°   Wind: 9mph
Humidity: 39%   Direction: 230°SW
Pressure: 30.04"   Gusts: NA
Location:  41.33°N, 110.29°W
Report Text: KFBR 260455Z AUTO 23008KT CLR 13/M01 A3004 RMK AO2 T01261011 PWINO
Loading
Personal Weather Stations






























Interactive Weather Map New forecast layout! Learn more

10-Day Weather Forecast

Advertisements
Track Severe Weather on mobile